createdAt,value
2022-10-28T00:02:09.895Z,16.70
2022-10-28T00:06:28.111Z,16.71
2022-10-28T00:10:39.713Z,16.70
2022-10-28T00:14:51.233Z,16.69
2022-10-28T00:19:04.649Z,16.61
2022-10-28T00:23:16.194Z,16.58
2022-10-28T00:27:29.798Z,16.54
2022-10-28T00:31:41.962Z,16.49
2022-10-28T00:35:53.525Z,16.44
2022-10-28T00:40:05.504Z,16.43
2022-10-28T00:44:54.346Z,16.45
2022-10-28T00:49:21.025Z,16.40
2022-10-28T00:53:33.414Z,16.37
2022-10-28T00:57:46.114Z,16.37
2022-10-28T01:01:57.849Z,16.35
2022-10-28T01:06:10.543Z,16.30
2022-10-28T01:10:38.292Z,16.30
2022-10-28T01:15:08.430Z,16.29
2022-10-28T01:19:33.675Z,16.28
2022-10-28T01:24:39.557Z,16.29
2022-10-28T01:29:18.840Z,16.27
2022-10-28T01:33:42.976Z,16.21
2022-10-28T01:38:14.061Z,16.22
2022-10-28T01:42:34.313Z,16.16
2022-10-28T01:46:55.998Z,16.16
2022-10-28T01:51:27.002Z,16.11
2022-10-28T01:55:42.177Z,16.08
2022-10-28T01:59:54.220Z,16.05
2022-10-28T02:04:05.748Z,16.05
2022-10-28T02:08:25.916Z,16.08
2022-10-28T02:12:38.635Z,16.05
2022-10-28T02:16:56.293Z,16.04
2022-10-28T02:21:55.335Z,15.99
2022-10-28T02:26:22.022Z,16.00
2022-10-28T02:30:44.446Z,16.04
2022-10-28T02:35:00.144Z,15.97
2022-10-28T02:39:11.708Z,15.94
2022-10-28T02:43:25.168Z,15.92
2022-10-28T02:47:42.644Z,15.88
2022-10-28T02:52:00.057Z,15.86
2022-10-28T02:56:14.708Z,15.81
2022-10-28T03:00:26.284Z,15.82
2022-10-28T03:04:37.743Z,15.82
2022-10-28T03:08:49.228Z,15.75
2022-10-28T03:13:00.728Z,15.66
2022-10-28T03:17:12.221Z,15.67
2022-10-28T03:21:23.724Z,15.63
2022-10-28T03:25:35.193Z,15.57
2022-10-28T03:29:46.653Z,15.51
2022-10-28T03:33:58.202Z,15.43
2022-10-28T03:38:09.720Z,15.28
2022-10-28T03:42:21.197Z,15.22
2022-10-28T03:46:35.169Z,15.15
2022-10-28T03:50:47.641Z,15.06
2022-10-28T03:55:23.868Z,15.01
2022-10-28T03:59:35.441Z,14.93
2022-10-28T04:03:47.001Z,14.85
2022-10-28T04:07:58.516Z,14.84
2022-10-28T04:12:10.973Z,14.79
2022-10-28T04:16:22.505Z,14.75
2022-10-28T04:20:34.029Z,14.73
2022-10-28T04:24:45.494Z,14.70
2022-10-28T04:28:57.217Z,14.65
2022-10-28T04:33:12.088Z,14.57
2022-10-28T04:37:23.844Z,14.55
2022-10-28T04:41:35.438Z,14.48
2022-10-28T04:45:47.318Z,14.42
2022-10-28T04:49:58.808Z,14.41
2022-10-28T04:54:10.382Z,14.34
2022-10-28T04:58:21.893Z,14.28
2022-10-28T05:02:33.398Z,14.14
2022-10-28T05:06:44.983Z,14.24
2022-10-28T05:10:56.549Z,14.11
2022-10-28T05:15:09.090Z,14.15
2022-10-28T05:19:20.600Z,14.14
2022-10-28T05:23:32.122Z,14.05
2022-10-28T05:27:43.668Z,14.08
2022-10-28T05:31:55.250Z,13.98
2022-10-28T05:36:06.949Z,13.88
2022-10-28T05:40:18.499Z,13.99
2022-10-28T05:44:30.014Z,14.20
2022-10-28T05:48:41.548Z,14.35
2022-10-28T05:52:55.553Z,14.39
2022-10-28T05:57:07.082Z,14.45
2022-10-28T06:01:18.578Z,14.45
2022-10-28T06:05:30.066Z,14.37
2022-10-28T06:09:41.535Z,14.36
2022-10-28T06:13:51.481Z,14.29
2022-10-28T06:18:03.149Z,14.23
2022-10-28T06:22:14.724Z,14.20
2022-10-28T06:26:26.202Z,14.21
2022-10-28T06:30:37.714Z,14.17
2022-10-28T06:34:49.206Z,14.04
2022-10-28T06:39:00.852Z,14.16
2022-10-28T06:43:12.984Z,14.23
2022-10-28T06:47:26.102Z,14.15
2022-10-28T06:51:37.586Z,14.31
2022-10-28T06:55:56.612Z,14.37
2022-10-28T07:00:08.973Z,14.47
2022-10-28T07:04:20.483Z,14.60
2022-10-28T07:08:32.596Z,14.79
2022-10-28T07:12:44.116Z,14.98
2022-10-28T07:16:55.651Z,15.25
2022-10-28T07:21:07.137Z,15.45
2022-10-28T07:25:18.625Z,15.73
2022-10-28T07:29:30.185Z,16.07
2022-10-28T07:33:41.649Z,16.36
2022-10-28T07:37:53.509Z,16.60
2022-10-28T07:42:05.041Z,16.74
2022-10-28T07:46:17.662Z,16.82
2022-10-28T07:50:29.196Z,16.97
2022-10-28T07:54:40.791Z,17.16
2022-10-28T07:58:52.323Z,17.38
2022-10-28T08:03:03.820Z,17.61
2022-10-28T08:07:15.826Z,17.90
2022-10-28T08:11:27.345Z,18.68
2022-10-28T08:15:38.798Z,19.73
2022-10-28T08:19:50.313Z,20.26
2022-10-28T08:24:01.872Z,20.53
2022-10-28T08:28:13.352Z,20.66
2022-10-28T08:32:24.924Z,20.68
2022-10-28T08:36:36.473Z,20.56
2022-10-28T08:41:12.823Z,20.71
2022-10-28T08:45:53.868Z,20.91
2022-10-28T08:50:11.261Z,21.79
2022-10-28T08:54:54.910Z,22.15
2022-10-28T08:59:10.623Z,22.37
2022-10-28T09:03:39.230Z,22.65
2022-10-28T09:07:52.201Z,23.08
2022-10-28T09:12:13.157Z,23.48
2022-10-28T09:16:39.470Z,24.13
2022-10-28T09:20:54.959Z,25.11
2022-10-28T09:25:32.244Z,26.10
2022-10-28T09:30:05.673Z,26.39
2022-10-28T09:34:52.805Z,26.25
2022-10-28T09:39:07.124Z,25.82
2022-10-28T09:43:18.532Z,25.59
2022-10-28T09:47:40.506Z,25.63
2022-10-28T09:52:16.436Z,25.47
2022-10-28T09:56:29.541Z,25.49
2022-10-28T10:00:41.187Z,25.21
2022-10-28T10:04:54.091Z,24.70
2022-10-28T10:09:05.619Z,24.36
2022-10-28T10:13:22.397Z,24.48
2022-10-28T10:17:39.734Z,24.66
2022-10-28T10:21:54.187Z,24.55
2022-10-28T10:26:11.242Z,24.52
2022-10-28T10:30:30.636Z,24.77
2022-10-28T10:34:54.204Z,24.93
2022-10-28T10:39:21.824Z,24.87
2022-10-28T10:43:35.610Z,24.77
2022-10-28T10:47:47.172Z,24.84
2022-10-28T10:52:01.561Z,24.82
2022-10-28T10:56:15.569Z,24.64
2022-10-28T11:00:35.762Z,24.77
2022-10-28T11:04:53.387Z,24.91
2022-10-28T11:09:25.015Z,24.88
2022-10-28T11:13:40.044Z,24.76
2022-10-28T11:18:20.622Z,24.88
2022-10-28T11:23:12.647Z,24.78
2022-10-28T11:28:04.359Z,24.61
2022-10-28T11:32:25.671Z,24.57
2022-10-28T11:36:55.972Z,24.58
2022-10-28T11:41:25.396Z,24.61
2022-10-28T11:46:19.879Z,24.82
2022-10-28T11:50:50.055Z,24.85
2022-10-28T11:55:25.779Z,24.87
2022-10-28T11:59:56.046Z,24.91
2022-10-28T12:04:20.464Z,24.98
2022-10-28T12:08:42.551Z,24.93
2022-10-28T12:12:58.219Z,24.91
2022-10-28T12:17:19.619Z,24.81
2022-10-28T12:21:37.563Z,24.72
2022-10-28T12:25:52.489Z,24.64
2022-10-28T12:30:16.263Z,24.49
2022-10-28T12:34:34.063Z,24.55
2022-10-28T12:38:55.883Z,24.55
2022-10-28T12:43:24.935Z,24.54
2022-10-28T12:47:43.348Z,24.51
2022-10-28T12:52:01.747Z,24.42
2022-10-28T12:56:26.213Z,24.35
2022-10-28T13:00:44.274Z,24.18
2022-10-28T13:04:57.696Z,24.19
2022-10-28T13:09:37.875Z,24.11
2022-10-28T13:14:16.471Z,24.06
2022-10-28T13:18:52.751Z,23.85
2022-10-28T13:23:10.119Z,23.68
2022-10-28T13:27:22.820Z,23.65
2022-10-28T13:31:37.370Z,23.58
2022-10-28T13:35:50.727Z,23.43
2022-10-28T13:40:02.450Z,23.33
2022-10-28T13:44:24.020Z,23.21
2022-10-28T13:48:41.447Z,23.04
2022-10-28T13:53:23.918Z,22.92
2022-10-28T13:57:37.960Z,22.78
2022-10-28T14:02:07.837Z,22.72
2022-10-28T14:06:34.921Z,22.62
2022-10-28T14:11:21.734Z,22.61
2022-10-28T14:15:40.803Z,22.55
2022-10-28T14:19:53.541Z,22.47
2022-10-28T14:24:12.197Z,22.38
2022-10-28T14:28:29.662Z,22.34
2022-10-28T14:32:57.234Z,22.28
2022-10-28T14:37:28.437Z,22.14
2022-10-28T14:42:05.088Z,22.10
2022-10-28T14:46:45.577Z,21.96
2022-10-28T14:51:00.151Z,21.95
2022-10-28T14:55:31.027Z,21.96
2022-10-28T14:59:44.100Z,21.90
2022-10-28T15:04:02.287Z,21.80
2022-10-28T15:08:13.822Z,21.69
2022-10-28T15:12:26.171Z,21.65
2022-10-28T15:16:47.761Z,21.55
2022-10-28T15:21:19.914Z,21.44
2022-10-28T15:25:31.386Z,21.27
2022-10-28T15:29:43.519Z,21.23
2022-10-28T15:33:55.023Z,21.11
2022-10-28T15:38:34.554Z,21.00
2022-10-28T15:42:53.688Z,20.93
2022-10-28T15:47:25.456Z,20.85
2022-10-28T15:51:37.033Z,20.75
2022-10-28T15:56:09.447Z,20.66
2022-10-28T16:00:27.499Z,20.62
2022-10-28T16:04:45.982Z,20.57
2022-10-28T16:09:20.651Z,20.52
2022-10-28T16:13:36.889Z,20.48
2022-10-28T16:17:48.748Z,20.44
2022-10-28T16:22:00.281Z,20.39
2022-10-28T16:26:12.390Z,20.40
2022-10-28T16:30:23.926Z,20.36
2022-10-28T16:34:35.428Z,20.35
2022-10-28T16:38:46.981Z,20.32
2022-10-28T16:42:58.546Z,20.25
2022-10-28T16:47:14.868Z,20.10
2022-10-28T16:51:26.390Z,20.03
2022-10-28T16:55:38.185Z,20.04
2022-10-28T16:59:49.940Z,20.02
2022-10-28T17:04:01.639Z,20.02
2022-10-28T17:08:13.772Z,20.01
2022-10-28T17:12:27.249Z,19.95
2022-10-28T17:16:40.710Z,19.84
2022-10-28T17:21:02.462Z,19.66
2022-10-28T17:25:14.330Z,19.66
2022-10-28T17:29:26.225Z,19.69
2022-10-28T17:33:37.714Z,19.66
2022-10-28T17:37:49.241Z,19.71
2022-10-28T17:42:00.727Z,19.68
2022-10-28T17:46:12.263Z,19.69
2022-10-28T17:50:23.713Z,19.65
2022-10-28T17:54:35.188Z,19.61
2022-10-28T17:58:46.855Z,19.57
2022-10-28T18:02:58.471Z,19.53
2022-10-28T18:07:10.027Z,19.55
2022-10-28T18:11:21.499Z,19.54
2022-10-28T18:15:36.638Z,19.43
2022-10-28T18:19:48.121Z,19.31
2022-10-28T18:24:03.879Z,19.16
2022-10-28T18:28:17.535Z,19.09
2022-10-28T18:32:29.015Z,18.97
2022-10-28T18:36:40.512Z,18.83
2022-10-28T18:40:52.016Z,18.64
2022-10-28T18:45:05.438Z,18.57
2022-10-28T18:49:16.931Z,18.42
2022-10-28T18:53:28.653Z,18.31
2022-10-28T18:57:40.157Z,18.08
2022-10-28T19:01:51.772Z,18.04
2022-10-28T19:06:06.325Z,18.08
2022-10-28T19:10:17.918Z,18.05
2022-10-28T19:14:29.446Z,18.00
2022-10-28T19:18:41.004Z,17.87
2022-10-28T19:22:52.885Z,17.86
2022-10-28T19:27:04.770Z,17.68
2022-10-28T19:31:19.213Z,17.77
2022-10-28T19:35:32.870Z,17.61
2022-10-28T19:39:44.376Z,17.56
2022-10-28T19:44:00.532Z,17.55
2022-10-28T19:48:12.033Z,17.48
2022-10-28T19:52:23.616Z,17.42
2022-10-28T19:56:35.662Z,17.32
2022-10-28T20:00:47.156Z,17.26
2022-10-28T20:04:58.686Z,17.19
2022-10-28T20:09:10.237Z,17.19
2022-10-28T20:13:21.779Z,17.12
2022-10-28T20:17:33.277Z,17.10
2022-10-28T20:21:45.131Z,17.03
2022-10-28T20:25:56.690Z,17.00
2022-10-28T20:30:08.705Z,17.02
2022-10-28T20:34:21.832Z,16.93
2022-10-28T20:38:33.628Z,16.86
2022-10-28T20:42:45.168Z,16.82
2022-10-28T20:46:56.682Z,16.78
2022-10-28T20:51:09.227Z,16.78
2022-10-28T20:55:20.796Z,16.78
2022-10-28T20:59:32.332Z,16.76
2022-10-28T21:03:44.548Z,16.80
2022-10-28T21:07:56.427Z,16.90
2022-10-28T21:12:08.224Z,16.97
2022-10-28T21:16:20.189Z,16.91
2022-10-28T21:20:32.500Z,16.81
2022-10-28T21:24:44.003Z,16.77
2022-10-28T21:28:56.300Z,16.74
2022-10-28T21:33:07.811Z,16.70
2022-10-28T21:37:19.518Z,16.57
2022-10-28T21:41:31.276Z,16.53
2022-10-28T21:45:42.736Z,16.45
2022-10-28T21:49:54.257Z,16.38
2022-10-28T21:54:05.785Z,16.34
2022-10-28T21:58:17.894Z,16.34
2022-10-28T22:02:29.511Z,16.33
2022-10-28T22:06:41.240Z,16.32
2022-10-28T22:11:00.996Z,16.31
2022-10-28T22:15:12.504Z,16.18
2022-10-28T22:19:24.121Z,16.16
2022-10-28T22:23:36.699Z,16.13
2022-10-28T22:27:48.195Z,16.08
2022-10-28T22:31:59.667Z,16.05
2022-10-28T22:36:16.331Z,16.01
2022-10-28T22:40:29.340Z,16.00
2022-10-28T22:44:40.832Z,15.96
2022-10-28T22:48:52.765Z,15.99
2022-10-28T22:53:04.566Z,15.89
2022-10-28T22:57:16.041Z,15.86
2022-10-28T23:01:29.013Z,15.79
2022-10-28T23:05:40.970Z,15.76
2022-10-28T23:09:52.474Z,15.68
2022-10-28T23:14:04.095Z,15.68
2022-10-28T23:18:15.574Z,15.68
2022-10-28T23:22:28.877Z,15.65
2022-10-28T23:26:42.071Z,15.56
2022-10-28T23:30:53.578Z,15.49
2022-10-28T23:35:06.023Z,15.39
2022-10-28T23:39:17.525Z,15.30
2022-10-28T23:43:29.971Z,15.21
2022-10-28T23:47:42.057Z,15.15
2022-10-28T23:51:53.570Z,15.04
2022-10-28T23:56:05.941Z,15.00
